createdAt,value
2019-04-10T00:01:09.794Z,1.89
2019-04-10T00:03:41.820Z,1.87
2019-04-10T00:06:09.870Z,1.81
2019-04-10T00:08:38.710Z,1.77
2019-04-10T00:11:08.191Z,1.72
2019-04-10T00:13:36.867Z,1.68
2019-04-10T00:16:05.605Z,1.67
2019-04-10T00:18:34.305Z,1.64
2019-04-10T00:21:02.970Z,1.61
2019-04-10T00:23:31.439Z,1.60
2019-04-10T00:26:01.344Z,1.57
2019-04-10T00:28:29.979Z,1.55
2019-04-10T00:30:58.485Z,1.52
2019-04-10T00:33:27.525Z,1.49
2019-04-10T00:35:56.882Z,1.45
2019-04-10T00:38:26.102Z,1.43
2019-04-10T00:40:55.459Z,1.41
2019-04-10T00:43:24.659Z,1.39
2019-04-10T00:45:53.609Z,1.35
2019-04-10T00:48:22.148Z,1.33
2019-04-10T00:50:50.996Z,1.29
2019-04-10T00:53:19.596Z,1.27
2019-04-10T00:55:48.226Z,1.24
2019-04-10T00:58:16.660Z,1.21
2019-04-10T01:00:45.417Z,1.17
2019-04-10T01:03:16.218Z,1.16
2019-04-10T01:05:44.690Z,1.15
2019-04-10T01:08:13.182Z,1.14
2019-04-10T01:10:42.242Z,1.12
2019-04-10T01:13:10.633Z,1.12
2019-04-10T01:15:39.316Z,1.12
2019-04-10T01:18:08.047Z,1.11
2019-04-10T01:20:37.661Z,1.07
2019-04-10T01:23:06.451Z,1.04
2019-04-10T01:25:34.948Z,1.02
2019-04-10T01:28:03.421Z,1.00
2019-04-10T01:30:32.789Z,0.99
2019-04-10T01:33:01.450Z,0.96
2019-04-10T01:35:30.052Z,0.94
2019-04-10T01:38:01.392Z,0.92
2019-04-10T01:40:29.099Z,0.88
2019-04-10T01:43:08.309Z,0.84
2019-04-10T01:45:27.944Z,0.82
2019-04-10T01:47:56.456Z,0.79
2019-04-10T01:50:24.932Z,0.79
2019-04-10T01:52:53.510Z,0.78
2019-04-10T01:55:25.837Z,0.75
2019-04-10T01:57:52.817Z,0.73
2019-04-10T02:00:23.677Z,0.71
2019-04-10T02:02:53.918Z,0.70
2019-04-10T02:05:22.878Z,0.67
2019-04-10T02:08:01.179Z,0.64
2019-04-10T02:10:21.732Z,0.60
2019-04-10T02:12:50.830Z,0.58
2019-04-10T02:15:19.676Z,0.57
2019-04-10T02:17:48.839Z,0.58
2019-04-10T02:20:17.407Z,0.57
2019-04-10T02:22:45.942Z,0.56
2019-04-10T02:25:16.067Z,0.55
2019-04-10T02:27:44.760Z,0.54
2019-04-10T02:30:15.110Z,0.52
2019-04-10T02:32:47.649Z,0.51
2019-04-10T02:35:17.187Z,0.49
2019-04-10T02:37:44.792Z,0.49
2019-04-10T02:40:15.073Z,0.48
2019-04-10T02:42:45.039Z,0.46
2019-04-10T02:45:14.763Z,0.46
2019-04-10T02:47:45.002Z,0.46
2019-04-10T02:50:14.317Z,0.45
2019-04-10T02:52:43.495Z,0.45
2019-04-10T02:55:12.225Z,0.46
2019-04-10T02:57:41.375Z,0.49
2019-04-10T03:00:13.142Z,0.50
2019-04-10T03:02:41.911Z,0.51
2019-04-10T03:05:10.947Z,0.51
2019-04-10T03:07:40.398Z,0.51
2019-04-10T03:10:20.509Z,0.50
2019-04-10T03:12:41.032Z,0.51
2019-04-10T03:15:12.494Z,0.52
2019-04-10T03:17:42.078Z,0.51
2019-04-10T03:20:11.200Z,0.48
2019-04-10T03:22:40.897Z,0.47
2019-04-10T03:25:10.846Z,0.43
2019-04-10T03:27:40.581Z,0.43
2019-04-10T03:30:12.700Z,0.42
2019-04-10T03:32:48.067Z,0.40
2019-04-10T03:35:23.150Z,0.40
2019-04-10T03:37:52.821Z,0.42
2019-04-10T03:40:21.724Z,0.44
2019-04-10T03:42:50.630Z,0.42
2019-04-10T03:45:20.249Z,0.41
2019-04-10T03:47:49.399Z,0.39
2019-04-10T03:50:18.415Z,0.38
2019-04-10T03:52:47.042Z,0.34
2019-04-10T03:55:16.650Z,0.34
2019-04-10T03:57:45.555Z,0.34
2019-04-10T04:00:14.205Z,0.33
2019-04-10T04:02:42.693Z,0.32
2019-04-10T04:05:12.702Z,0.30
2019-04-10T04:07:41.323Z,0.29
2019-04-10T04:10:10.846Z,0.29
2019-04-10T04:12:39.927Z,0.29
2019-04-10T04:15:09.539Z,0.29
2019-04-10T04:17:38.618Z,0.31
2019-04-10T04:20:07.561Z,0.30
2019-04-10T04:22:37.001Z,0.28
2019-04-10T04:25:06.776Z,0.26
2019-04-10T04:27:35.704Z,0.24
2019-04-10T04:30:06.980Z,0.23
2019-04-10T04:32:35.440Z,0.23
2019-04-10T04:35:04.942Z,0.21
2019-04-10T04:37:33.655Z,0.21
2019-04-10T04:40:03.024Z,0.20
2019-04-10T04:42:32.925Z,0.18
2019-04-10T04:45:01.658Z,0.18
2019-04-10T04:47:30.976Z,0.19
2019-04-10T04:50:00.117Z,0.18
2019-04-10T04:52:28.688Z,0.18
2019-04-10T04:54:57.359Z,0.20
2019-04-10T04:57:25.988Z,0.19
2019-04-10T04:59:54.511Z,0.21
2019-04-10T05:02:23.080Z,0.21
2019-04-10T05:04:51.783Z,0.20
2019-04-10T05:07:20.483Z,0.21
2019-04-10T05:09:50.344Z,0.22
2019-04-10T05:12:20.113Z,0.25
2019-04-10T05:14:48.768Z,0.28
2019-04-10T05:17:18.320Z,0.30
2019-04-10T05:19:47.030Z,0.34
2019-04-10T05:22:16.625Z,0.39
2019-04-10T05:24:45.431Z,0.44
2019-04-10T05:27:14.257Z,0.50
2019-04-10T05:29:42.987Z,0.55
2019-04-10T05:32:14.537Z,0.60
2019-04-10T05:34:44.715Z,0.65
2019-04-10T05:37:13.584Z,0.69
2019-04-10T05:39:47.627Z,0.73
2019-04-10T05:42:12.801Z,0.78
2019-04-10T05:44:42.289Z,0.83
2019-04-10T05:47:11.779Z,0.90
2019-04-10T05:49:41.388Z,0.98
2019-04-10T05:52:10.388Z,1.03
2019-04-10T05:54:39.536Z,1.11
2019-04-10T05:57:08.403Z,1.18
2019-04-10T05:59:36.980Z,1.25
2019-04-10T06:02:06.821Z,1.32
2019-04-10T06:04:35.783Z,1.41
2019-04-10T06:07:05.243Z,1.50
2019-04-10T06:09:33.876Z,1.58
2019-04-10T06:12:04.082Z,1.66
2019-04-10T06:14:32.527Z,1.76
2019-04-10T06:17:03.966Z,1.85
2019-04-10T06:19:32.340Z,1.95
2019-04-10T06:22:01.120Z,2.03
2019-04-10T06:24:30.274Z,2.12
2019-04-10T06:26:59.722Z,2.21
2019-04-10T06:29:28.817Z,2.31
2019-04-10T06:31:57.554Z,2.40
2019-04-10T06:34:26.045Z,2.51
2019-04-10T06:36:54.496Z,2.60
2019-04-10T06:39:23.342Z,2.71
2019-04-10T06:41:51.838Z,2.82
2019-04-10T06:44:20.285Z,2.93
2019-04-10T06:46:49.063Z,3.03
2019-04-10T06:49:17.920Z,3.15
2019-04-10T06:51:46.364Z,3.27
2019-04-10T06:54:14.889Z,3.38
2019-04-10T06:56:43.396Z,3.51
2019-04-10T06:59:12.203Z,3.62
2019-04-10T07:01:50.474Z,3.73
2019-04-10T07:04:11.550Z,3.87
2019-04-10T07:06:54.937Z,3.98
2019-04-10T07:09:12.308Z,4.11
2019-04-10T07:11:40.827Z,4.23
2019-04-10T07:14:13.428Z,4.34
2019-04-10T07:16:40.218Z,4.46
2019-04-10T07:19:11.497Z,4.57
2019-04-10T07:21:38.861Z,4.67
2019-04-10T07:24:09.499Z,4.78
2019-04-10T07:26:41.993Z,4.87
2019-04-10T07:29:08.928Z,4.98
2019-04-10T07:31:38.324Z,5.11
2019-04-10T07:34:08.824Z,5.20
2019-04-10T07:36:41.466Z,5.25
2019-04-10T07:39:08.044Z,5.28
2019-04-10T07:41:37.623Z,5.32
2019-04-10T07:44:06.430Z,5.36
2019-04-10T07:46:35.298Z,5.41
2019-04-10T07:49:03.756Z,5.48
2019-04-10T07:51:32.233Z,5.56
2019-04-10T07:54:01.910Z,5.65
2019-04-10T07:56:31.185Z,5.73
2019-04-10T07:59:00.561Z,5.77
2019-04-10T08:01:29.206Z,5.79
2019-04-10T08:03:57.942Z,5.86
2019-04-10T08:06:27.711Z,5.95
2019-04-10T08:08:56.664Z,6.06
2019-04-10T08:11:26.126Z,6.16
2019-04-10T08:13:56.064Z,6.27
2019-04-10T08:16:25.388Z,6.35
2019-04-10T08:18:54.216Z,6.40
2019-04-10T08:21:23.866Z,6.44
2019-04-10T08:23:53.056Z,6.49
2019-04-10T08:26:22.720Z,6.56
2019-04-10T08:28:51.677Z,6.69
2019-04-10T08:31:22.207Z,6.84
2019-04-10T08:33:50.539Z,6.89
2019-04-10T08:36:19.321Z,6.87
2019-04-10T08:38:48.945Z,6.84
2019-04-10T08:41:17.524Z,6.72
2019-04-10T08:43:46.001Z,6.62
2019-04-10T08:46:14.603Z,6.53
2019-04-10T08:48:43.460Z,6.40
2019-04-10T08:51:12.024Z,6.35
2019-04-10T08:53:41.136Z,6.38
2019-04-10T08:56:10.657Z,6.50
2019-04-10T08:58:39.698Z,6.67
2019-04-10T09:01:09.150Z,6.90
2019-04-10T09:03:37.698Z,7.12
2019-04-10T09:06:07.178Z,7.26
2019-04-10T09:08:37.051Z,7.27
2019-04-10T09:11:07.024Z,7.23
2019-04-10T09:13:36.746Z,7.19
2019-04-10T09:16:06.593Z,7.25
2019-04-10T09:18:35.566Z,7.41
2019-04-10T09:21:04.915Z,7.68
2019-04-10T09:23:42.576Z,7.92
2019-04-10T09:26:03.905Z,8.14
2019-04-10T09:28:32.797Z,8.43
2019-04-10T09:31:01.808Z,8.71
2019-04-10T09:33:32.393Z,8.91
2019-04-10T09:36:00.975Z,8.95
2019-04-10T09:38:30.652Z,8.86
2019-04-10T09:40:59.427Z,8.74
2019-04-10T09:43:28.159Z,8.61
2019-04-10T09:45:56.911Z,8.51
2019-04-10T09:48:26.354Z,8.57
2019-04-10T09:50:56.034Z,8.74
2019-04-10T09:53:24.714Z,8.85
2019-04-10T09:55:53.219Z,8.96
2019-04-10T09:58:21.906Z,9.12
2019-04-10T10:00:50.932Z,9.25
2019-04-10T10:03:19.540Z,9.35
2019-04-10T10:05:48.059Z,9.51
2019-04-10T10:08:16.575Z,9.66
2019-04-10T10:10:45.124Z,9.66
2019-04-10T10:13:13.592Z,9.52
2019-04-10T10:15:43.183Z,9.28
2019-04-10T10:18:12.935Z,8.99
2019-04-10T10:20:41.569Z,8.77
2019-04-10T10:23:11.706Z,8.59
2019-04-10T10:25:41.462Z,8.46
2019-04-10T10:28:11.700Z,8.40
2019-04-10T10:30:41.637Z,8.45
2019-04-10T10:33:10.285Z,8.58
2019-04-10T10:35:39.045Z,8.70
2019-04-10T10:38:08.301Z,8.72
2019-04-10T10:40:37.059Z,8.71
2019-04-10T10:43:05.510Z,8.66
2019-04-10T10:45:34.650Z,8.63
2019-04-10T10:48:03.441Z,8.64
2019-04-10T10:50:33.091Z,8.60
2019-04-10T10:53:01.971Z,8.51
2019-04-10T10:55:30.410Z,8.47
2019-04-10T10:57:59.652Z,8.46
2019-04-10T11:00:29.316Z,8.57
2019-04-10T11:02:58.139Z,8.79
2019-04-10T11:05:27.354Z,8.95
2019-04-10T11:07:57.270Z,8.97
2019-04-10T11:10:27.578Z,8.85
2019-04-10T11:12:56.668Z,8.73
2019-04-10T11:15:26.178Z,8.74
2019-04-10T11:17:55.240Z,8.87
2019-04-10T11:20:24.162Z,9.03
2019-04-10T11:22:53.621Z,9.21
2019-04-10T11:25:22.227Z,9.24
2019-04-10T11:27:51.570Z,9.18
2019-04-10T11:30:20.733Z,9.13
2019-04-10T11:32:50.671Z,9.21
2019-04-10T11:35:19.272Z,9.42
2019-04-10T11:37:51.333Z,9.67
2019-04-10T11:40:18.970Z,9.95
2019-04-10T11:42:47.743Z,10.24
2019-04-10T11:45:18.605Z,10.55
2019-04-10T11:47:47.467Z,10.79
2019-04-10T11:50:18.333Z,10.97
2019-04-10T11:52:52.356Z,11.13
2019-04-10T11:55:21.201Z,11.35
2019-04-10T11:57:49.722Z,11.58
2019-04-10T12:00:23.699Z,11.79
2019-04-10T12:02:52.778Z,11.81
2019-04-10T12:05:22.101Z,11.86
2019-04-10T12:08:21.010Z,11.86
2019-04-10T12:12:52.471Z,11.40
2019-04-10T12:15:21.547Z,11.22
2019-04-10T12:17:50.096Z,11.10
2019-04-10T12:20:18.915Z,10.87
2019-04-10T12:22:48.303Z,10.77
2019-04-10T12:25:18.589Z,10.78
2019-04-10T12:27:47.427Z,10.90
2019-04-10T12:30:17.371Z,11.12
2019-04-10T12:32:47.390Z,11.36
2019-04-10T12:35:17.107Z,11.65
2019-04-10T12:37:45.893Z,11.88
2019-04-10T12:40:14.707Z,11.92
2019-04-10T12:42:44.144Z,11.86
2019-04-10T12:45:13.627Z,11.79
2019-04-10T12:47:42.100Z,11.63
2019-04-10T12:50:12.059Z,11.51
2019-04-10T12:52:40.975Z,11.44
2019-04-10T12:55:10.181Z,11.54
2019-04-10T12:57:39.131Z,11.76
2019-04-10T13:00:15.879Z,12.02
2019-04-10T13:02:44.848Z,12.19
2019-04-10T13:05:14.126Z,12.34
2019-04-10T13:07:43.585Z,12.48
2019-04-10T13:10:12.825Z,12.59
2019-04-10T13:12:41.797Z,12.68
2019-04-10T13:15:12.974Z,12.52
2019-04-10T13:17:42.638Z,12.49
2019-04-10T13:20:13.588Z,12.82
2019-04-10T13:22:42.444Z,13.29
2019-04-10T13:25:12.527Z,13.84
2019-04-10T13:27:41.214Z,14.36
2019-04-10T13:30:14.194Z,14.50
2019-04-10T13:32:42.535Z,14.12
2019-04-10T13:35:11.446Z,13.55
2019-04-10T13:37:40.030Z,13.17
2019-04-10T13:40:09.035Z,12.89
2019-04-10T13:42:37.538Z,12.92
2019-04-10T13:45:08.348Z,13.21
2019-04-10T13:47:36.936Z,13.52
2019-04-10T13:50:08.788Z,13.81
2019-04-10T13:52:39.026Z,13.75
2019-04-10T13:55:10.219Z,13.32
2019-04-10T13:57:39.339Z,12.83
2019-04-10T14:00:11.387Z,12.51
2019-04-10T14:02:40.079Z,12.58
2019-04-10T14:05:13.782Z,12.95
2019-04-10T14:07:42.350Z,13.45
2019-04-10T14:10:12.526Z,13.88
2019-04-10T14:12:40.976Z,14.02
2019-04-10T14:15:10.250Z,14.05
2019-04-10T14:17:38.911Z,14.13
2019-04-10T14:20:07.992Z,14.21
2019-04-10T14:22:38.166Z,13.98
2019-04-10T14:25:09.591Z,13.52
2019-04-10T14:27:38.560Z,13.28
2019-04-10T14:30:11.313Z,13.46
2019-04-10T14:32:40.449Z,13.89
2019-04-10T14:35:11.424Z,14.40
2019-04-10T14:37:41.219Z,14.53
2019-04-10T14:40:11.681Z,14.41
2019-04-10T14:42:40.342Z,14.17
2019-04-10T14:45:09.669Z,13.68
2019-04-10T14:47:39.235Z,13.21
2019-04-10T15:55:43.335Z,12.97
2019-04-10T15:58:12.365Z,12.97
2019-04-10T16:00:41.362Z,14.82
2019-04-10T16:03:11.223Z,13.91
2019-04-10T16:05:39.862Z,13.15
2019-04-10T16:08:09.987Z,12.68
2019-04-10T16:10:49.678Z,12.89
2019-04-10T16:13:20.277Z,13.54
2019-04-10T16:15:48.878Z,14.12
2019-04-10T16:18:23.121Z,14.41
2019-04-10T16:20:56.172Z,14.59
2019-04-10T16:23:33.407Z,14.72
2019-04-10T16:26:02.949Z,14.90
2019-04-10T16:28:31.551Z,15.15
2019-04-10T16:31:01.321Z,15.22
2019-04-10T16:33:29.919Z,15.10
2019-04-10T16:35:59.064Z,14.87
2019-04-10T16:38:28.840Z,14.48
2019-04-10T16:40:58.372Z,14.12
2019-04-10T16:43:26.962Z,14.06
2019-04-10T16:45:55.533Z,14.15
2019-04-10T16:48:25.180Z,14.22
2019-04-10T16:50:54.218Z,14.27
2019-04-10T16:53:22.780Z,14.25
2019-04-10T16:55:51.493Z,14.02
2019-04-10T16:58:20.104Z,13.66
2019-04-10T17:00:49.957Z,13.20
2019-04-10T17:03:19.679Z,12.91
2019-04-10T17:05:48.353Z,12.86
2019-04-10T17:08:17.026Z,12.63
2019-04-10T17:10:46.422Z,12.27
2019-04-10T17:13:16.127Z,11.96
2019-04-10T17:15:45.063Z,11.74
2019-04-10T17:18:13.533Z,11.50
2019-04-10T17:20:42.479Z,11.20
2019-04-10T17:23:12.278Z,10.87
2019-04-10T17:25:42.245Z,10.54
2019-04-10T17:28:12.198Z,10.25
2019-04-10T17:30:41.913Z,9.96
2019-04-10T17:33:11.158Z,9.65
2019-04-10T17:35:40.169Z,9.36
2019-04-10T17:38:10.041Z,9.07
2019-04-10T17:40:47.762Z,8.82
2019-04-10T17:43:08.938Z,8.61
2019-04-10T17:45:38.572Z,8.41
2019-04-10T17:48:07.290Z,8.25
2019-04-10T17:50:35.817Z,8.15
2019-04-10T17:53:05.062Z,8.03
2019-04-10T17:55:35.631Z,7.92
2019-04-10T17:58:05.411Z,7.80
2019-04-10T18:00:35.757Z,7.68
2019-04-10T18:03:05.458Z,7.58
2019-04-10T18:05:34.963Z,7.48
2019-04-10T18:08:05.007Z,7.39
2019-04-10T18:10:46.432Z,7.31
2019-04-10T18:13:05.971Z,7.24
2019-04-10T18:15:35.734Z,7.17
2019-04-10T18:18:07.203Z,7.10
2019-04-10T18:20:37.017Z,7.03
2019-04-10T18:23:07.026Z,6.95
2019-04-10T18:25:36.220Z,6.88
2019-04-10T18:28:05.504Z,6.80
2019-04-10T18:30:35.529Z,6.76
2019-04-10T18:33:05.127Z,6.70
2019-04-10T18:35:35.265Z,6.65
2019-04-10T18:38:04.062Z,6.59
2019-04-10T18:40:32.523Z,6.51
2019-04-10T18:43:02.145Z,6.41
2019-04-10T18:45:30.861Z,6.34
2019-04-10T18:47:59.570Z,6.25
2019-04-10T18:50:29.499Z,6.17
2019-04-10T18:52:58.086Z,6.11
2019-04-10T18:55:26.572Z,6.04
2019-04-10T18:57:55.110Z,5.99
2019-04-10T19:00:42.808Z,5.92
2019-04-10T19:03:13.156Z,5.87
2019-04-10T19:05:45.995Z,5.82
2019-04-10T19:08:16.068Z,5.76
2019-04-10T19:10:45.469Z,5.70
2019-04-10T19:13:15.085Z,5.63
2019-04-10T19:15:44.759Z,5.57
2019-04-10T19:18:13.774Z,5.52
2019-04-10T19:20:42.946Z,5.49
2019-04-10T19:23:12.933Z,5.46
2019-04-10T19:25:41.536Z,5.43
2019-04-10T19:28:10.769Z,5.41
2019-04-10T19:30:41.467Z,5.39
2019-04-10T19:33:10.127Z,5.33
2019-04-10T19:35:39.258Z,5.27
2019-04-10T19:38:09.247Z,5.23
2019-04-10T19:40:40.380Z,5.17
2019-04-10T19:43:10.269Z,5.13
2019-04-10T19:45:39.799Z,5.13
2019-04-10T19:48:08.998Z,5.13
2019-04-10T19:50:37.643Z,5.14
2019-04-10T19:53:06.161Z,5.14
2019-04-10T19:55:35.845Z,5.15
2019-04-10T19:58:04.477Z,5.15
2019-04-10T20:00:34.947Z,5.10
2019-04-10T20:03:03.756Z,5.07
2019-04-10T20:05:32.249Z,5.03
2019-04-10T20:08:01.651Z,5.02
2019-04-10T20:10:30.205Z,5.01
2019-04-10T20:12:59.379Z,4.99
2019-04-10T20:15:28.832Z,4.99
2019-04-10T20:17:57.288Z,5.01
2019-04-10T20:20:27.055Z,5.01
2019-04-10T20:22:55.754Z,5.01
2019-04-10T20:25:24.379Z,5.01
2019-04-10T20:27:53.100Z,4.99
2019-04-10T20:30:23.802Z,4.98
2019-04-10T20:32:52.443Z,4.98
2019-04-10T20:35:20.987Z,4.98
2019-04-10T20:37:49.689Z,4.97
2019-04-10T20:40:19.542Z,4.96
2019-04-10T20:42:48.713Z,4.95
2019-04-10T20:45:17.700Z,4.96
2019-04-10T20:47:46.945Z,4.96
2019-04-10T20:50:15.598Z,4.94
2019-04-10T20:52:45.274Z,4.92
2019-04-10T20:55:14.217Z,4.87
2019-04-10T20:57:43.824Z,4.86
2019-04-10T21:00:14.528Z,4.85
2019-04-10T21:02:43.023Z,4.83
2019-04-10T21:05:14.813Z,4.81
2019-04-10T21:07:41.834Z,4.82
2019-04-10T21:10:10.792Z,4.83
2019-04-10T21:12:39.860Z,4.83
2019-04-10T21:15:09.219Z,4.85
2019-04-10T21:17:37.725Z,4.86
2019-04-10T21:20:08.126Z,4.86
2019-04-10T21:22:36.906Z,4.85
2019-04-10T21:25:06.712Z,4.82
2019-04-10T21:27:35.514Z,4.79
2019-04-10T21:30:16.091Z,4.76
2019-04-10T21:32:47.432Z,4.74
2019-04-10T21:35:18.762Z,4.73
2019-04-10T21:37:48.570Z,4.73
2019-04-10T21:40:18.569Z,4.70
2019-04-10T21:42:47.622Z,4.67
2019-04-10T21:45:16.360Z,4.64
2019-04-10T21:47:45.991Z,4.60
2019-04-10T21:50:15.440Z,4.57
2019-04-10T21:52:45.465Z,4.56
2019-04-10T21:55:15.017Z,4.53
2019-04-10T21:57:44.760Z,4.49
2019-04-10T22:00:16.405Z,4.45
2019-04-10T22:02:46.504Z,4.44
2019-04-10T22:05:16.337Z,4.40
2019-04-10T22:07:50.368Z,4.38
2019-04-10T22:10:20.653Z,4.38
2019-04-10T22:12:52.175Z,4.35
2019-04-10T22:15:22.589Z,4.33
2019-04-10T22:17:52.326Z,4.32
2019-04-10T22:20:20.931Z,4.31
2019-04-10T22:22:49.633Z,4.30
2019-04-10T22:25:19.414Z,4.29
2019-04-10T22:27:47.968Z,4.29
2019-04-10T22:30:18.902Z,4.30
2019-04-10T22:32:47.592Z,4.28
2019-04-10T22:35:17.432Z,4.26
2019-04-10T22:37:46.637Z,4.24
2019-04-10T22:40:15.451Z,4.22
2019-04-10T22:42:46.758Z,4.18
2019-04-10T22:45:30.759Z,4.16
2019-04-10T22:48:00.708Z,4.13
2019-04-10T22:50:29.311Z,4.14
2019-04-10T22:52:59.258Z,4.14
2019-04-10T22:55:28.154Z,4.14
2019-04-10T22:57:57.066Z,4.15
2019-04-10T23:00:27.984Z,4.17
2019-04-10T23:02:57.286Z,4.17
2019-04-10T23:05:26.779Z,4.17
2019-04-10T23:07:55.854Z,4.17
2019-04-10T23:10:24.815Z,4.20
2019-04-10T23:13:00.036Z,4.21
2019-04-10T23:15:25.139Z,4.24
2019-04-10T23:17:53.875Z,4.24
2019-04-10T23:20:22.382Z,4.23
2019-04-10T23:22:50.915Z,4.22
2019-04-10T23:25:20.441Z,4.23
2019-04-10T23:27:51.920Z,4.23
2019-04-10T23:30:19.951Z,4.24
2019-04-10T23:32:48.810Z,4.24
2019-04-10T23:35:17.346Z,4.23
2019-04-10T23:37:46.880Z,4.26
2019-04-10T23:40:16.837Z,4.26
2019-04-10T23:46:14.602Z,4.24
2019-04-10T23:48:43.105Z,4.23
2019-04-10T23:51:12.609Z,4.20
2019-04-10T23:53:41.276Z,4.19
2019-04-10T23:56:09.761Z,4.15
2019-04-10T23:58:38.264Z,4.12
